sensor_id;sensor_type;location;lat;lon;timestamp;P1;durP1;ratioP1;P2;durP2;ratioP2
25351;SDS011;13304;48.464;8.712;2024-01-10T00:02:00;59.80;;;25.43;;
25351;SDS011;13304;48.464;8.712;2024-01-10T00:04:25;58.10;;;25.57;;
25351;SDS011;13304;48.464;8.712;2024-01-10T00:06:54;63.75;;;27.70;;
25351;SDS011;13304;48.464;8.712;2024-01-10T00:09:19;57.53;;;26.63;;
25351;SDS011;13304;48.464;8.712;2024-01-10T00:11:45;52.63;;;24.53;;
25351;SDS011;13304;48.464;8.712;2024-01-10T00:14:10;61.43;;;25.10;;
25351;SDS011;13304;48.464;8.712;2024-01-10T00:16:36;50.87;;;24.03;;
25351;SDS011;13304;48.464;8.712;2024-01-10T00:19:02;55.30;;;24.57;;
25351;SDS011;13304;48.464;8.712;2024-01-10T00:21:27;52.77;;;25.40;;
25351;SDS011;13304;48.464;8.712;2024-01-10T00:23:54;58.50;;;26.10;;
25351;SDS011;13304;48.464;8.712;2024-01-10T00:26:19;54.23;;;24.67;;
25351;SDS011;13304;48.464;8.712;2024-01-10T00:28:45;50.77;;;24.60;;
25351;SDS011;13304;48.464;8.712;2024-01-10T00:31:11;52.70;;;23.97;;
25351;SDS011;13304;48.464;8.712;2024-01-10T00:33:38;48.53;;;23.07;;
25351;SDS011;13304;48.464;8.712;2024-01-10T00:36:04;49.13;;;24.20;;
25351;SDS011;13304;48.464;8.712;2024-01-10T00:38:31;54.63;;;25.87;;
25351;SDS011;13304;48.464;8.712;2024-01-10T00:40:56;53.37;;;24.40;;
25351;SDS011;13304;48.464;8.712;2024-01-10T00:43:22;51.70;;;23.97;;
25351;SDS011;13304;48.464;8.712;2024-01-10T00:45:48;58.20;;;25.13;;
25351;SDS011;13304;48.464;8.712;2024-01-10T00:48:13;57.07;;;25.50;;
25351;SDS011;13304;48.464;8.712;2024-01-10T00:50:39;52.03;;;24.77;;
25351;SDS011;13304;48.464;8.712;2024-01-10T00:53:04;51.33;;;24.27;;
25351;SDS011;13304;48.464;8.712;2024-01-10T00:55:30;52.57;;;25.37;;
25351;SDS011;13304;48.464;8.712;2024-01-10T00:57:56;53.10;;;24.97;;
25351;SDS011;13304;48.464;8.712;2024-01-10T01:00:21;52.60;;;25.77;;
25351;SDS011;13304;48.464;8.712;2024-01-10T01:02:47;64.57;;;26.97;;
25351;SDS011;13304;48.464;8.712;2024-01-10T01:05:13;56.70;;;26.07;;
25351;SDS011;13304;48.464;8.712;2024-01-10T01:07:41;49.15;;;24.58;;
25351;SDS011;13304;48.464;8.712;2024-01-10T01:10:07;58.27;;;24.63;;
25351;SDS011;13304;48.464;8.712;2024-01-10T01:12:33;54.97;;;24.67;;
25351;SDS011;13304;48.464;8.712;2024-01-10T01:14:59;54.40;;;24.70;;
25351;SDS011;13304;48.464;8.712;2024-01-10T01:17:25;58.47;;;24.97;;
25351;SDS011;13304;48.464;8.712;2024-01-10T01:19:51;50.63;;;25.40;;
25351;SDS011;13304;48.464;8.712;2024-01-10T01:22:16;54.30;;;25.43;;
25351;SDS011;13304;48.464;8.712;2024-01-10T01:24:42;51.97;;;25.50;;
25351;SDS011;13304;48.464;8.712;2024-01-10T01:27:08;54.17;;;25.40;;
25351;SDS011;13304;48.464;8.712;2024-01-10T01:29:34;54.37;;;25.17;;
25351;SDS011;13304;48.464;8.712;2024-01-10T01:32:00;51.27;;;24.57;;
25351;SDS011;13304;48.464;8.712;2024-01-10T01:34:25;50.10;;;24.13;;
25351;SDS011;13304;48.464;8.712;2024-01-10T01:36:51;57.70;;;25.30;;
25351;SDS011;13304;48.464;8.712;2024-01-10T01:39:17;50.20;;;23.47;;
25351;SDS011;13304;48.464;8.712;2024-01-10T01:41:43;47.60;;;23.20;;
25351;SDS011;13304;48.464;8.712;2024-01-10T01:44:09;46.90;;;23.80;;
25351;SDS011;13304;48.464;8.712;2024-01-10T01:46:34;48.63;;;23.83;;
25351;SDS011;13304;48.464;8.712;2024-01-10T01:49:00;54.97;;;23.90;;
25351;SDS011;13304;48.464;8.712;2024-01-10T01:51:26;48.63;;;22.63;;
25351;SDS011;13304;48.464;8.712;2024-01-10T01:53:53;50.23;;;23.73;;
25351;SDS011;13304;48.464;8.712;2024-01-10T01:56:19;52.07;;;24.87;;
25351;SDS011;13304;48.464;8.712;2024-01-10T01:58:46;49.23;;;23.50;;
25351;SDS011;13304;48.464;8.712;2024-01-10T02:01:13;49.97;;;23.67;;
25351;SDS011;13304;48.464;8.712;2024-01-10T02:03:39;52.17;;;24.23;;
25351;SDS011;13304;48.464;8.712;2024-01-10T02:06:06;54.00;;;23.70;;
25351;SDS011;13304;48.464;8.712;2024-01-10T02:08:32;53.17;;;24.57;;
25351;SDS011;13304;48.464;8.712;2024-01-10T02:11:02;52.00;;;24.53;;
25351;SDS011;13304;48.464;8.712;2024-01-10T02:13:28;50.10;;;24.13;;
25351;SDS011;13304;48.464;8.712;2024-01-10T02:15:55;51.93;;;23.07;;
25351;SDS011;13304;48.464;8.712;2024-01-10T02:18:21;51.43;;;24.53;;
25351;SDS011;13304;48.464;8.712;2024-01-10T02:20:47;54.73;;;24.20;;
25351;SDS011;13304;48.464;8.712;2024-01-10T02:23:13;51.70;;;24.17;;
25351;SDS011;13304;48.464;8.712;2024-01-10T02:25:39;55.40;;;25.30;;
25351;SDS011;13304;48.464;8.712;2024-01-10T02:28:06;57.00;;;24.93;;
25351;SDS011;13304;48.464;8.712;2024-01-10T02:30:32;48.07;;;24.10;;
25351;SDS011;13304;48.464;8.712;2024-01-10T02:32:58;50.40;;;24.73;;
25351;SDS011;13304;48.464;8.712;2024-01-10T02:35:24;54.43;;;24.47;;
25351;SDS011;13304;48.464;8.712;2024-01-10T02:37:49;48.13;;;23.60;;
25351;SDS011;13304;48.464;8.712;2024-01-10T02:40:16;56.67;;;24.90;;
25351;SDS011;13304;48.464;8.712;2024-01-10T02:42:42;56.77;;;24.07;;
25351;SDS011;13304;48.464;8.712;2024-01-10T02:45:08;50.97;;;23.93;;
25351;SDS011;13304;48.464;8.712;2024-01-10T02:47:34;56.60;;;24.63;;
25351;SDS011;13304;48.464;8.712;2024-01-10T02:50:02;54.17;;;23.53;;
25351;SDS011;13304;48.464;8.712;2024-01-10T02:52:28;53.10;;;24.70;;
25351;SDS011;13304;48.464;8.712;2024-01-10T02:54:53;54.40;;;25.43;;
25351;SDS011;13304;48.464;8.712;2024-01-10T02:57:19;56.27;;;23.20;;
25351;SDS011;13304;48.464;8.712;2024-01-10T02:59:45;58.40;;;24.93;;
25351;SDS011;13304;48.464;8.712;2024-01-10T03:02:10;54.10;;;25.33;;
25351;SDS011;13304;48.464;8.712;2024-01-10T03:04:36;58.27;;;25.37;;
25351;SDS011;13304;48.464;8.712;2024-01-10T03:07:02;56.10;;;26.00;;
25351;SDS011;13304;48.464;8.712;2024-01-10T03:09:28;56.20;;;25.47;;
25351;SDS011;13304;48.464;8.712;2024-01-10T03:11:54;56.37;;;24.17;;
25351;SDS011;13304;48.464;8.712;2024-01-10T03:14:19;57.07;;;25.70;;
25351;SDS011;13304;48.464;8.712;2024-01-10T03:16:45;52.83;;;24.60;;
25351;SDS011;13304;48.464;8.712;2024-01-10T03:19:11;63.80;;;25.70;;
25351;SDS011;13304;48.464;8.712;2024-01-10T03:21:36;57.30;;;24.80;;
25351;SDS011;13304;48.464;8.712;2024-01-10T03:24:02;53.83;;;24.60;;
25351;SDS011;13304;48.464;8.712;2024-01-10T03:26:28;48.57;;;24.37;;
25351;SDS011;13304;48.464;8.712;2024-01-10T03:28:55;57.43;;;26.23;;
25351;SDS011;13304;48.464;8.712;2024-01-10T03:31:22;52.60;;;23.70;;
25351;SDS011;13304;48.464;8.712;2024-01-10T03:33:48;55.43;;;25.13;;
25351;SDS011;13304;48.464;8.712;2024-01-10T03:36:17;53.30;;;25.57;;
25351;SDS011;13304;48.464;8.712;2024-01-10T03:41:15;55.20;;;25.23;;
25351;SDS011;13304;48.464;8.712;2024-01-10T03:43:42;51.73;;;24.23;;
25351;SDS011;13304;48.464;8.712;2024-01-10T03:46:08;54.33;;;24.77;;
25351;SDS011;13304;48.464;8.712;2024-01-10T03:48:34;51.43;;;24.47;;
25351;SDS011;13304;48.464;8.712;2024-01-10T03:51:00;52.20;;;25.17;;
25351;SDS011;13304;48.464;8.712;2024-01-10T03:53:26;54.23;;;25.63;;
25351;SDS011;13304;48.464;8.712;2024-01-10T03:55:52;56.23;;;25.27;;
25351;SDS011;13304;48.464;8.712;2024-01-10T03:58:18;51.43;;;24.87;;
25351;SDS011;13304;48.464;8.712;2024-01-10T04:00:43;53.87;;;24.97;;
25351;SDS011;13304;48.464;8.712;2024-01-10T04:03:09;56.80;;;25.60;;
25351;SDS011;13304;48.464;8.712;2024-01-10T04:05:35;53.97;;;25.87;;
25351;SDS011;13304;48.464;8.712;2024-01-10T04:08:00;59.90;;;26.70;;
25351;SDS011;13304;48.464;8.712;2024-01-10T04:10:26;54.27;;;25.97;;
25351;SDS011;13304;48.464;8.712;2024-01-10T04:12:51;66.83;;;30.80;;
25351;SDS011;13304;48.464;8.712;2024-01-10T04:15:17;58.80;;;26.80;;
25351;SDS011;13304;48.464;8.712;2024-01-10T04:17:43;52.63;;;24.70;;
25351;SDS011;13304;48.464;8.712;2024-01-10T04:20:09;54.70;;;26.00;;
25351;SDS011;13304;48.464;8.712;2024-01-10T04:22:35;52.80;;;24.87;;
25351;SDS011;13304;48.464;8.712;2024-01-10T04:25:01;52.17;;;24.93;;
25351;SDS011;13304;48.464;8.712;2024-01-10T04:27:30;50.03;;;24.07;;
25351;SDS011;13304;48.464;8.712;2024-01-10T04:29:55;61.90;;;25.10;;
25351;SDS011;13304;48.464;8.712;2024-01-10T04:32:21;54.87;;;26.57;;
25351;SDS011;13304;48.464;8.712;2024-01-10T04:34:47;52.97;;;26.07;;
25351;SDS011;13304;48.464;8.712;2024-01-10T04:37:12;50.57;;;25.10;;
25351;SDS011;13304;48.464;8.712;2024-01-10T04:39:39;56.27;;;26.10;;
25351;SDS011;13304;48.464;8.712;2024-01-10T04:42:05;57.40;;;25.30;;
25351;SDS011;13304;48.464;8.712;2024-01-10T04:44:31;54.87;;;25.50;;
25351;SDS011;13304;48.464;8.712;2024-01-10T04:46:56;61.77;;;27.10;;
25351;SDS011;13304;48.464;8.712;2024-01-10T04:49:22;51.57;;;25.30;;
25351;SDS011;13304;48.464;8.712;2024-01-10T04:51:48;57.07;;;26.47;;
25351;SDS011;13304;48.464;8.712;2024-01-10T04:54:15;55.27;;;24.33;;
25351;SDS011;13304;48.464;8.712;2024-01-10T04:56:40;54.87;;;24.37;;
25351;SDS011;13304;48.464;8.712;2024-01-10T04:59:06;48.60;;;24.60;;
25351;SDS011;13304;48.464;8.712;2024-01-10T05:01:32;55.23;;;25.50;;
25351;SDS011;13304;48.464;8.712;2024-01-10T05:03:58;49.83;;;24.33;;
25351;SDS011;13304;48.464;8.712;2024-01-10T05:06:23;55.03;;;25.63;;
25351;SDS011;13304;48.464;8.712;2024-01-10T05:08:49;57.80;;;25.53;;
25351;SDS011;13304;48.464;8.712;2024-01-10T05:11:15;49.17;;;24.40;;
25351;SDS011;13304;48.464;8.712;2024-01-10T05:13:44;57.27;;;26.40;;
25351;SDS011;13304;48.464;8.712;2024-01-10T05:16:09;51.33;;;26.00;;
25351;SDS011;13304;48.464;8.712;2024-01-10T05:18:35;55.23;;;26.50;;
25351;SDS011;13304;48.464;8.712;2024-01-10T05:21:01;55.80;;;25.43;;
25351;SDS011;13304;48.464;8.712;2024-01-10T05:23:27;53.53;;;24.80;;
25351;SDS011;13304;48.464;8.712;2024-01-10T05:25:53;55.23;;;25.10;;
25351;SDS011;13304;48.464;8.712;2024-01-10T05:28:19;56.97;;;25.97;;
25351;SDS011;13304;48.464;8.712;2024-01-10T05:30:44;58.03;;;26.27;;
25351;SDS011;13304;48.464;8.712;2024-01-10T05:33:10;55.23;;;24.63;;
25351;SDS011;13304;48.464;8.712;2024-01-10T05:35:36;53.13;;;25.13;;
25351;SDS011;13304;48.464;8.712;2024-01-10T05:38:05;54.25;;;24.60;;
25351;SDS011;13304;48.464;8.712;2024-01-10T05:40:30;54.53;;;24.47;;
25351;SDS011;13304;48.464;8.712;2024-01-10T05:42:57;57.53;;;27.10;;
25351;SDS011;13304;48.464;8.712;2024-01-10T05:45:25;63.70;;;26.40;;
25351;SDS011;13304;48.464;8.712;2024-01-10T05:47:51;56.10;;;26.10;;
25351;SDS011;13304;48.464;8.712;2024-01-10T05:50:17;58.87;;;25.80;;
25351;SDS011;13304;48.464;8.712;2024-01-10T05:52:44;54.13;;;25.47;;
25351;SDS011;13304;48.464;8.712;2024-01-10T05:55:10;70.00;;;26.57;;
25351;SDS011;13304;48.464;8.712;2024-01-10T05:57:36;54.50;;;26.47;;
25351;SDS011;13304;48.464;8.712;2024-01-10T06:00:02;58.03;;;24.93;;
25351;SDS011;13304;48.464;8.712;2024-01-10T06:02:29;52.17;;;25.23;;
25351;SDS011;13304;48.464;8.712;2024-01-10T06:04:55;48.20;;;24.30;;
25351;SDS011;13304;48.464;8.712;2024-01-10T06:07:21;55.60;;;26.63;;
25351;SDS011;13304;48.464;8.712;2024-01-10T06:09:47;54.40;;;25.17;;
25351;SDS011;13304;48.464;8.712;2024-01-10T06:12:12;59.17;;;26.77;;
25351;SDS011;13304;48.464;8.712;2024-01-10T06:14:38;55.47;;;26.17;;
25351;SDS011;13304;48.464;8.712;2024-01-10T06:17:04;55.27;;;24.93;;
25351;SDS011;13304;48.464;8.712;2024-01-10T06:19:30;55.33;;;25.70;;
25351;SDS011;13304;48.464;8.712;2024-01-10T06:21:56;57.93;;;27.03;;
25351;SDS011;13304;48.464;8.712;2024-01-10T06:24:22;49.80;;;25.53;;
25351;SDS011;13304;48.464;8.712;2024-01-10T06:26:48;54.47;;;25.77;;
25351;SDS011;13304;48.464;8.712;2024-01-10T06:29:17;55.05;;;25.55;;
25351;SDS011;13304;48.464;8.712;2024-01-10T06:31:43;54.57;;;24.40;;
25351;SDS011;13304;48.464;8.712;2024-01-10T06:34:09;57.60;;;25.87;;
25351;SDS011;13304;48.464;8.712;2024-01-10T06:36:34;51.07;;;23.97;;
25351;SDS011;13304;48.464;8.712;2024-01-10T06:39:00;55.53;;;25.63;;
25351;SDS011;13304;48.464;8.712;2024-01-10T06:41:26;55.30;;;25.77;;
25351;SDS011;13304;48.464;8.712;2024-01-10T06:43:52;58.67;;;25.70;;
25351;SDS011;13304;48.464;8.712;2024-01-10T06:46:18;51.80;;;23.90;;
25351;SDS011;13304;48.464;8.712;2024-01-10T06:48:44;54.67;;;24.30;;
25351;SDS011;13304;48.464;8.712;2024-01-10T06:51:13;51.07;;;24.47;;
25351;SDS011;13304;48.464;8.712;2024-01-10T06:56:05;43.20;;;20.80;;
25351;SDS011;13304;48.464;8.712;2024-01-10T06:58:32;45.37;;;22.70;;
25351;SDS011;13304;48.464;8.712;2024-01-10T07:00:58;50.97;;;23.23;;
25351;SDS011;13304;48.464;8.712;2024-01-10T07:03:25;51.23;;;23.23;;
25351;SDS011;13304;48.464;8.712;2024-01-10T07:05:51;47.73;;;22.10;;
25351;SDS011;13304;48.464;8.712;2024-01-10T07:08:17;47.37;;;22.20;;
25351;SDS011;13304;48.464;8.712;2024-01-10T07:10:43;47.27;;;21.87;;
25351;SDS011;13304;48.464;8.712;2024-01-10T07:13:08;51.40;;;22.93;;
25351;SDS011;13304;48.464;8.712;2024-01-10T07:15:35;51.03;;;23.50;;
25351;SDS011;13304;48.464;8.712;2024-01-10T07:18:00;55.63;;;24.57;;
25351;SDS011;13304;48.464;8.712;2024-01-10T07:20:26;72.60;;;29.73;;
25351;SDS011;13304;48.464;8.712;2024-01-10T07:22:52;57.73;;;26.27;;
25351;SDS011;13304;48.464;8.712;2024-01-10T07:25:17;63.00;;;26.40;;
25351;SDS011;13304;48.464;8.712;2024-01-10T07:27:43;102.10;;;40.20;;
25351;SDS011;13304;48.464;8.712;2024-01-10T07:30:09;85.33;;;35.50;;
25351;SDS011;13304;48.464;8.712;2024-01-10T07:35:06;60.43;;;26.03;;
25351;SDS011;13304;48.464;8.712;2024-01-10T07:42:34;50.83;;;22.30;;
25351;SDS011;13304;48.464;8.712;2024-01-10T07:45:00;52.97;;;23.10;;
25351;SDS011;13304;48.464;8.712;2024-01-10T07:47:33;55.37;;;23.03;;
25351;SDS011;13304;48.464;8.712;2024-01-10T07:50:02;52.33;;;23.33;;
25351;SDS011;13304;48.464;8.712;2024-01-10T07:52:29;48.10;;;22.20;;
25351;SDS011;13304;48.464;8.712;2024-01-10T07:54:55;49.90;;;22.80;;
25351;SDS011;13304;48.464;8.712;2024-01-10T07:57:20;47.97;;;23.50;;
25351;SDS011;13304;48.464;8.712;2024-01-10T07:59:46;54.20;;;23.73;;
25351;SDS011;13304;48.464;8.712;2024-01-10T08:02:12;61.10;;;23.47;;
25351;SDS011;13304;48.464;8.712;2024-01-10T08:04:38;46.13;;;22.47;;
25351;SDS011;13304;48.464;8.712;2024-01-10T08:07:03;54.03;;;22.77;;
25351;SDS011;13304;48.464;8.712;2024-01-10T08:09:29;60.40;;;25.37;;
25351;SDS011;13304;48.464;8.712;2024-01-10T08:11:55;49.10;;;24.13;;
25351;SDS011;13304;48.464;8.712;2024-01-10T08:14:20;63.13;;;27.13;;
25351;SDS011;13304;48.464;8.712;2024-01-10T08:16:46;59.47;;;26.03;;
25351;SDS011;13304;48.464;8.712;2024-01-10T08:19:12;52.80;;;24.13;;
25351;SDS011;13304;48.464;8.712;2024-01-10T08:21:39;62.03;;;27.23;;
25351;SDS011;13304;48.464;8.712;2024-01-10T08:24:05;54.67;;;25.20;;
25351;SDS011;13304;48.464;8.712;2024-01-10T08:26:31;57.40;;;27.93;;
25351;SDS011;13304;48.464;8.712;2024-01-10T08:28:56;54.40;;;25.93;;
25351;SDS011;13304;48.464;8.712;2024-01-10T08:31:22;66.93;;;28.57;;
25351;SDS011;13304;48.464;8.712;2024-01-10T08:33:48;57.60;;;26.60;;
25351;SDS011;13304;48.464;8.712;2024-01-10T08:36:14;57.63;;;27.00;;
25351;SDS011;13304;48.464;8.712;2024-01-10T08:38:41;63.77;;;28.93;;
25351;SDS011;13304;48.464;8.712;2024-01-10T08:41:09;59.20;;;26.27;;
25351;SDS011;13304;48.464;8.712;2024-01-10T08:43:36;57.20;;;26.73;;
25351;SDS011;13304;48.464;8.712;2024-01-10T08:46:06;57.90;;;25.63;;
25351;SDS011;13304;48.464;8.712;2024-01-10T08:48:33;59.60;;;27.73;;
25351;SDS011;13304;48.464;8.712;2024-01-10T08:50:59;56.63;;;27.10;;
25351;SDS011;13304;48.464;8.712;2024-01-10T08:53:24;54.83;;;25.47;;
25351;SDS011;13304;48.464;8.712;2024-01-10T08:55:50;57.33;;;25.93;;
25351;SDS011;13304;48.464;8.712;2024-01-10T08:58:16;56.17;;;25.03;;
25351;SDS011;13304;48.464;8.712;2024-01-10T09:00:41;63.10;;;28.57;;
25351;SDS011;13304;48.464;8.712;2024-01-10T09:03:07;59.13;;;26.83;;
25351;SDS011;13304;48.464;8.712;2024-01-10T09:05:34;58.03;;;27.83;;
25351;SDS011;13304;48.464;8.712;2024-01-10T09:07:59;60.17;;;27.10;;
25351;SDS011;13304;48.464;8.712;2024-01-10T09:10:25;59.93;;;27.43;;
25351;SDS011;13304;48.464;8.712;2024-01-10T09:12:53;63.20;;;28.27;;
25351;SDS011;13304;48.464;8.712;2024-01-10T09:15:19;58.30;;;28.60;;
25351;SDS011;13304;48.464;8.712;2024-01-10T09:17:45;61.53;;;28.70;;
25351;SDS011;13304;48.464;8.712;2024-01-10T09:20:11;75.90;;;29.10;;
25351;SDS011;13304;48.464;8.712;2024-01-10T09:22:37;56.10;;;27.00;;
25351;SDS011;13304;48.464;8.712;2024-01-10T09:25:04;66.03;;;30.27;;
25351;SDS011;13304;48.464;8.712;2024-01-10T09:27:34;62.80;;;29.40;;
25351;SDS011;13304;48.464;8.712;2024-01-10T09:32:27;54.73;;;27.10;;
25351;SDS011;13304;48.464;8.712;2024-01-10T09:34:54;62.60;;;28.67;;
25351;SDS011;13304;48.464;8.712;2024-01-10T09:37:23;58.55;;;27.52;;
25351;SDS011;13304;48.464;8.712;2024-01-10T09:39:49;66.17;;;28.20;;
25351;SDS011;13304;48.464;8.712;2024-01-10T09:42:14;65.47;;;29.87;;
25351;SDS011;13304;48.464;8.712;2024-01-10T09:44:40;62.47;;;30.40;;
25351;SDS011;13304;48.464;8.712;2024-01-10T09:47:07;59.37;;;27.83;;
25351;SDS011;13304;48.464;8.712;2024-01-10T09:49:34;61.80;;;29.50;;
25351;SDS011;13304;48.464;8.712;2024-01-10T09:52:00;58.60;;;28.47;;
25351;SDS011;13304;48.464;8.712;2024-01-10T09:54:30;60.80;;;28.97;;
25351;SDS011;13304;48.464;8.712;2024-01-10T09:56:56;55.90;;;29.33;;
25351;SDS011;13304;48.464;8.712;2024-01-10T09:59:24;54.77;;;28.30;;
25351;SDS011;13304;48.464;8.712;2024-01-10T10:01:51;52.37;;;26.20;;
25351;SDS011;13304;48.464;8.712;2024-01-10T10:04:17;58.33;;;27.53;;
25351;SDS011;13304;48.464;8.712;2024-01-10T10:06:45;59.43;;;28.70;;
25351;SDS011;13304;48.464;8.712;2024-01-10T10:09:11;55.90;;;27.10;;
25351;SDS011;13304;48.464;8.712;2024-01-10T10:11:37;65.73;;;30.07;;
25351;SDS011;13304;48.464;8.712;2024-01-10T10:14:16;59.43;;;28.27;;
25351;SDS011;13304;48.464;8.712;2024-01-10T10:16:43;67.57;;;28.20;;
25351;SDS011;13304;48.464;8.712;2024-01-10T10:19:08;56.83;;;28.00;;
25351;SDS011;13304;48.464;8.712;2024-01-10T10:21:36;61.80;;;29.20;;
25351;SDS011;13304;48.464;8.712;2024-01-10T10:24:02;63.43;;;28.70;;
25351;SDS011;13304;48.464;8.712;2024-01-10T10:26:34;59.07;;;28.80;;
25351;SDS011;13304;48.464;8.712;2024-01-10T10:29:00;60.30;;;28.97;;
25351;SDS011;13304;48.464;8.712;2024-01-10T10:31:26;58.93;;;27.90;;
25351;SDS011;13304;48.464;8.712;2024-01-10T10:33:52;59.50;;;28.60;;
25351;SDS011;13304;48.464;8.712;2024-01-10T10:36:18;55.63;;;27.17;;
25351;SDS011;13304;48.464;8.712;2024-01-10T10:38:46;60.90;;;29.00;;
25351;SDS011;13304;48.464;8.712;2024-01-10T10:41:13;63.20;;;29.23;;
25351;SDS011;13304;48.464;8.712;2024-01-10T10:43:39;60.43;;;28.93;;
25351;SDS011;13304;48.464;8.712;2024-01-10T10:46:09;61.00;;;29.43;;
25351;SDS011;13304;48.464;8.712;2024-01-10T10:48:37;58.93;;;28.90;;
25351;SDS011;13304;48.464;8.712;2024-01-10T10:53:48;64.03;;;32.03;;
25351;SDS011;13304;48.464;8.712;2024-01-10T10:56:15;61.77;;;30.40;;
25351;SDS011;13304;48.464;8.712;2024-01-10T10:58:42;61.97;;;31.40;;
25351;SDS011;13304;48.464;8.712;2024-01-10T11:01:12;57.70;;;29.50;;
25351;SDS011;13304;48.464;8.712;2024-01-10T11:03:39;62.10;;;30.47;;
25351;SDS011;13304;48.464;8.712;2024-01-10T11:06:07;58.50;;;28.35;;
25351;SDS011;13304;48.464;8.712;2024-01-10T11:08:36;62.10;;;30.00;;
25351;SDS011;13304;48.464;8.712;2024-01-10T11:11:03;64.63;;;30.37;;
25351;SDS011;13304;48.464;8.712;2024-01-10T11:24:32;61.87;;;29.37;;
25351;SDS011;13304;48.464;8.712;2024-01-10T11:27:11;61.37;;;30.33;;
25351;SDS011;13304;48.464;8.712;2024-01-10T11:29:38;57.00;;;28.63;;
25351;SDS011;13304;48.464;8.712;2024-01-10T11:32:06;62.13;;;30.87;;
25351;SDS011;13304;48.464;8.712;2024-01-10T11:34:34;60.53;;;30.27;;
25351;SDS011;13304;48.464;8.712;2024-01-10T11:37:09;63.83;;;30.97;;
25351;SDS011;13304;48.464;8.712;2024-01-10T11:39:36;63.33;;;31.03;;
25351;SDS011;13304;48.464;8.712;2024-01-10T11:42:02;60.30;;;29.87;;
25351;SDS011;13304;48.464;8.712;2024-01-10T11:44:28;60.13;;;29.67;;
25351;SDS011;13304;48.464;8.712;2024-01-10T11:46:55;63.93;;;29.10;;
25351;SDS011;13304;48.464;8.712;2024-01-10T11:49:23;61.43;;;30.13;;
25351;SDS011;13304;48.464;8.712;2024-01-10T11:51:53;62.10;;;29.73;;
25351;SDS011;13304;48.464;8.712;2024-01-10T11:54:39;61.70;;;29.47;;
25351;SDS011;13304;48.464;8.712;2024-01-10T11:59:50;61.93;;;29.37;;
25351;SDS011;13304;48.464;8.712;2024-01-10T12:02:18;59.37;;;29.67;;
25351;SDS011;13304;48.464;8.712;2024-01-10T12:04:44;61.50;;;29.40;;
25351;SDS011;13304;48.464;8.712;2024-01-10T12:07:14;62.93;;;30.83;;
25351;SDS011;13304;48.464;8.712;2024-01-10T12:09:41;61.83;;;30.03;;
25351;SDS011;13304;48.464;8.712;2024-01-10T12:12:09;65.85;;;30.92;;
25351;SDS011;13304;48.464;8.712;2024-01-10T12:14:38;65.30;;;30.77;;
25351;SDS011;13304;48.464;8.712;2024-01-10T12:17:05;66.80;;;29.70;;
25351;SDS011;13304;48.464;8.712;2024-01-10T12:19:34;64.20;;;31.07;;
25351;SDS011;13304;48.464;8.712;2024-01-10T12:22:03;65.70;;;31.70;;
25351;SDS011;13304;48.464;8.712;2024-01-10T12:24:30;61.83;;;31.10;;
25351;SDS011;13304;48.464;8.712;2024-01-10T12:26:56;67.53;;;32.33;;
25351;SDS011;13304;48.464;8.712;2024-01-10T12:29:22;60.87;;;29.40;;
25351;SDS011;13304;48.464;8.712;2024-01-10T12:31:50;59.77;;;30.30;;
25351;SDS011;13304;48.464;8.712;2024-01-10T12:34:16;64.70;;;30.57;;
25351;SDS011;13304;48.464;8.712;2024-01-10T12:36:42;56.13;;;28.77;;
25351;SDS011;13304;48.464;8.712;2024-01-10T12:39:08;68.83;;;31.43;;
25351;SDS011;13304;48.464;8.712;2024-01-10T12:41:34;67.87;;;30.90;;
25351;SDS011;13304;48.464;8.712;2024-01-10T12:44:01;63.47;;;32.23;;
25351;SDS011;13304;48.464;8.712;2024-01-10T12:49:00;65.93;;;30.13;;
25351;SDS011;13304;48.464;8.712;2024-01-10T12:51:30;64.33;;;30.80;;
25351;SDS011;13304;48.464;8.712;2024-01-10T12:53:57;66.37;;;30.93;;
25351;SDS011;13304;48.464;8.712;2024-01-10T12:56:24;60.73;;;29.77;;
25351;SDS011;13304;48.464;8.712;2024-01-10T12:58:50;60.07;;;28.60;;
25351;SDS011;13304;48.464;8.712;2024-01-10T13:01:16;59.50;;;30.37;;
25351;SDS011;13304;48.464;8.712;2024-01-10T13:03:41;59.53;;;28.77;;
25351;SDS011;13304;48.464;8.712;2024-01-10T13:06:10;70.33;;;31.93;;
25351;SDS011;13304;48.464;8.712;2024-01-10T13:08:36;75.68;;;30.17;;
25351;SDS011;13304;48.464;8.712;2024-01-10T13:11:02;60.83;;;29.77;;
25351;SDS011;13304;48.464;8.712;2024-01-10T13:13:36;66.67;;;31.83;;
25351;SDS011;13304;48.464;8.712;2024-01-10T13:16:05;71.57;;;31.10;;
25351;SDS011;13304;48.464;8.712;2024-01-10T13:18:31;66.03;;;31.30;;
25351;SDS011;13304;48.464;8.712;2024-01-10T13:20:56;63.00;;;31.70;;
25351;SDS011;13304;48.464;8.712;2024-01-10T13:23:22;67.53;;;31.77;;
25351;SDS011;13304;48.464;8.712;2024-01-10T13:25:49;64.00;;;31.47;;
25351;SDS011;13304;48.464;8.712;2024-01-10T13:28:15;63.87;;;31.13;;
25351;SDS011;13304;48.464;8.712;2024-01-10T13:30:41;60.23;;;29.23;;
25351;SDS011;13304;48.464;8.712;2024-01-10T13:33:08;63.83;;;29.53;;
25351;SDS011;13304;48.464;8.712;2024-01-10T13:35:34;64.23;;;30.57;;
25351;SDS011;13304;48.464;8.712;2024-01-10T13:38:00;66.60;;;29.87;;
25351;SDS011;13304;48.464;8.712;2024-01-10T13:40:26;60.03;;;28.67;;
25351;SDS011;13304;48.464;8.712;2024-01-10T13:42:52;58.40;;;29.03;;
25351;SDS011;13304;48.464;8.712;2024-01-10T13:45:18;61.17;;;29.63;;
25351;SDS011;13304;48.464;8.712;2024-01-10T13:47:45;63.40;;;29.93;;
25351;SDS011;13304;48.464;8.712;2024-01-10T13:50:11;59.80;;;29.43;;
25351;SDS011;13304;48.464;8.712;2024-01-10T13:52:36;61.83;;;30.10;;
25351;SDS011;13304;48.464;8.712;2024-01-10T13:55:02;68.57;;;30.20;;
25351;SDS011;13304;48.464;8.712;2024-01-10T13:57:31;62.95;;;30.10;;
25351;SDS011;13304;48.464;8.712;2024-01-10T13:59:58;59.20;;;29.07;;
25351;SDS011;13304;48.464;8.712;2024-01-10T14:02:24;73.93;;;32.10;;
25351;SDS011;13304;48.464;8.712;2024-01-10T14:04:50;63.37;;;30.97;;
25351;SDS011;13304;48.464;8.712;2024-01-10T14:07:17;69.80;;;32.70;;
25351;SDS011;13304;48.464;8.712;2024-01-10T14:09:42;65.70;;;31.47;;
25351;SDS011;13304;48.464;8.712;2024-01-10T14:12:08;69.17;;;32.30;;
25351;SDS011;13304;48.464;8.712;2024-01-10T14:14:34;63.87;;;31.67;;
25351;SDS011;13304;48.464;8.712;2024-01-10T14:17:00;68.93;;;31.27;;
25351;SDS011;13304;48.464;8.712;2024-01-10T14:19:25;60.60;;;30.43;;
25351;SDS011;13304;48.464;8.712;2024-01-10T14:21:51;71.23;;;31.27;;
25351;SDS011;13304;48.464;8.712;2024-01-10T14:24:17;69.03;;;31.03;;
25351;SDS011;13304;48.464;8.712;2024-01-10T14:26:43;67.33;;;30.87;;
25351;SDS011;13304;48.464;8.712;2024-01-10T14:29:09;67.43;;;30.87;;
25351;SDS011;13304;48.464;8.712;2024-01-10T14:31:35;63.43;;;30.73;;
25351;SDS011;13304;48.464;8.712;2024-01-10T14:34:01;68.03;;;29.87;;
25351;SDS011;13304;48.464;8.712;2024-01-10T14:36:27;71.13;;;32.53;;
25351;SDS011;13304;48.464;8.712;2024-01-10T14:38:53;68.97;;;33.47;;
25351;SDS011;13304;48.464;8.712;2024-01-10T14:41:20;63.10;;;32.33;;
25351;SDS011;13304;48.464;8.712;2024-01-10T14:43:46;65.17;;;31.03;;
25351;SDS011;13304;48.464;8.712;2024-01-10T14:46:11;63.10;;;31.17;;
25351;SDS011;13304;48.464;8.712;2024-01-10T14:48:37;64.53;;;32.53;;
25351;SDS011;13304;48.464;8.712;2024-01-10T14:51:03;63.73;;;29.57;;